Wednesday, October 18, 2017, 5:58 PM EDT
Back to Local

KBDR, Sikorsky Memorial Airport

Location: Stratford, CT, United States Lat: 41.167
Local Time: 5:58 PM EDT (21:58 GMT) Lon: -73.133
Time Zone: US/Eastern Elev: 9 ft

Show me the last for .
Show Decoded

2017-10-18 16:52 METAR KBDR 182052Z 21007KT 10SM CLR 21/11 A3024 RMK AO2 SLP241 T02060106 56009 =
2017-10-18 15:52 METAR KBDR 181952Z 20008KT 10SM CLR 21/09 A3025 RMK AO2 SLP243 T02060094 =
2017-10-18 14:52 METAR KBDR 181852Z 21010KT 10SM CLR 21/10 A3026 RMK AO2 SLP247 T02060100 =
2017-10-18 13:52 METAR KBDR 181752Z 21010KT 10SM CLR 19/10 A3027 RMK AO2 SLP250 T01940100 10194
                 20106 58011 =
2017-10-18 12:52 METAR KBDR 181652Z 22009KT 10SM CLR 18/08 A3030 RMK AO2 SLP258 T01830083 =
2017-10-18 11:52 METAR KBDR 181552Z 22007KT 10SM CLR 17/07 A3031 RMK AO2 SLP263 T01720072 =
2017-10-18 10:52 METAR KBDR 181452Z 00000KT 10SM CLR 17/05 A3030 RMK AO2 SLP261 T01670050 50002 =
2017-10-18 09:52 METAR KBDR 181352Z 28005KT 10SM CLR 14/04 A3032 RMK AO2 SLP265 T01390039 =
2017-10-18 08:52 METAR KBDR 181252Z 26007KT 10SM CLR 12/04 A3031 RMK AO2 SLP263 T01220044 =
2017-10-18 07:52 METAR KBDR 181152Z 27006KT 10SM CLR 10/04 A3030 RMK AO2 SLP259 T01000039 10111
                 20089 51012 =
2017-10-18 06:52 METAR KBDR 181052Z 25004KT 10SM CLR 09/03 A3028 RMK AO2 SLP254 T00940033 =
2017-10-18 05:52 METAR KBDR 180952Z AUTO 25003KT 10SM CLR 09/03 A3028 RMK AO2 SLP253 T00940033 =
2017-10-18 04:52 METAR KBDR 180852Z AUTO 26007KT 10SM CLR 10/03 A3026 RMK AO2 SLP247 T01000033
                 55002 =
2017-10-18 03:52 METAR KBDR 180752Z AUTO 26007KT 10SM CLR 10/03 A3025 RMK AO2 SLP242 T01000033 =
2017-10-18 02:52 METAR KBDR 180652Z AUTO 25006KT 10SM CLR 11/04 A3026 RMK AO2 SLP246 T01060039 =
2017-10-18 01:52 METAR KBDR 180552Z AUTO 26007KT 10SM CLR 11/04 A3027 RMK AO2 SLP249 T01110039
                 10144 20111 56003 =
2017-10-18 00:52 METAR KBDR 180452Z AUTO 27008KT 10SM CLR 11/06 A3027 RMK AO2 SLP250 T01110056
                 401440039 =
2017-10-17 23:52 METAR KBDR 180352Z AUTO 23015KT 10SM CLR 14/06 A3027 RMK AO2 SLP250 T01390061 =
2017-10-17 22:52 METAR KBDR 180252Z AUTO 23014KT 10SM CLR 14/06 A3028 RMK AO2 SLP253 T01440056
                 51005 =
2017-10-17 21:52 METAR KBDR 180152Z 22015KT 10SM CLR 14/05 A3028 RMK AO2 SLP252 T01390050 =
2017-10-17 20:52 METAR KBDR 180052Z 21011KT 10SM CLR 13/05 A3027 RMK AO2 SLP250 T01330050 =
2017-10-17 19:52 METAR KBDR 172352Z 21013KT 10SM CLR 13/04 A3026 RMK AO2 SLP248 T01330044 10144
                 20128 53007 =
2017-10-17 18:52 METAR KBDR 172252Z 22006KT 10SM CLR 14/02 A3025 RMK AO2 SLP244 T01390017 =

Support USWX by starting your Amazon purchase here.